sensor_id;sensor_type;location;lat;lon;timestamp;pressure;altitude;pressure_sealevel;temperature;humidity
46241;BME280;31961;52.416;-0.732;2022-12-10T00:00:28;99949.33;;;-0.52;100.00
46241;BME280;31961;52.416;-0.732;2022-12-10T00:02:56;99948.29;;;-0.94;100.00
46241;BME280;31961;52.416;-0.732;2022-12-10T00:05:23;99947.24;;;-0.73;100.00
46241;BME280;31961;52.416;-0.732;2022-12-10T00:07:50;99946.61;;;-1.06;100.00
46241;BME280;31961;52.416;-0.732;2022-12-10T00:10:17;99952.54;;;-1.29;100.00
46241;BME280;31961;52.416;-0.732;2022-12-10T00:12:45;99951.37;;;-0.82;100.00
46241;BME280;31961;52.416;-0.732;2022-12-10T00:15:12;99948.00;;;-0.91;100.00
46241;BME280;31961;52.416;-0.732;2022-12-10T00:17:39;99951.12;;;-0.70;100.00
46241;BME280;31961;52.416;-0.732;2022-12-10T00:20:08;99952.04;;;-0.25;100.00
46241;BME280;31961;52.416;-0.732;2022-12-10T00:22:35;99950.77;;;-0.29;100.00
46241;BME280;31961;52.416;-0.732;2022-12-10T00:25:03;99953.85;;;-0.90;100.00
46241;BME280;31961;52.416;-0.732;2022-12-10T00:27:30;99956.64;;;-1.17;100.00
46241;BME280;31961;52.416;-0.732;2022-12-10T00:29:57;99962.77;;;-1.87;100.00
46241;BME280;31961;52.416;-0.732;2022-12-10T00:32:24;99964.44;;;-1.80;100.00
46241;BME280;31961;52.416;-0.732;2022-12-10T00:34:52;99965.61;;;-1.01;100.00
46241;BME280;31961;52.416;-0.732;2022-12-10T00:37:19;99962.73;;;-0.72;100.00
46241;BME280;31961;52.416;-0.732;2022-12-10T00:39:46;99968.45;;;-1.25;100.00
46241;BME280;31961;52.416;-0.732;2022-12-10T00:42:13;99967.17;;;-1.16;100.00
46241;BME280;31961;52.416;-0.732;2022-12-10T00:44:41;99963.31;;;-1.08;100.00
46241;BME280;31961;52.416;-0.732;2022-12-10T00:47:08;99962.19;;;-0.97;100.00
46241;BME280;31961;52.416;-0.732;2022-12-10T00:49:35;99964.54;;;-0.57;100.00
46241;BME280;31961;52.416;-0.732;2022-12-10T00:52:02;99962.60;;;-0.35;100.00
46241;BME280;31961;52.416;-0.732;2022-12-10T00:54:30;99962.84;;;-0.24;100.00
46241;BME280;31961;52.416;-0.732;2022-12-10T00:56:57;99963.35;;;-0.23;100.00
46241;BME280;31961;52.416;-0.732;2022-12-10T00:59:24;99961.49;;;-0.26;100.00
46241;BME280;31961;52.416;-0.732;2022-12-10T01:01:52;99958.49;;;-0.23;100.00
46241;BME280;31961;52.416;-0.732;2022-12-10T01:04:19;99956.17;;;-0.52;100.00
46241;BME280;31961;52.416;-0.732;2022-12-10T01:06:48;99959.15;;;-0.27;100.00
46241;BME280;31961;52.416;-0.732;2022-12-10T01:09:17;99956.21;;;-0.27;100.00
46241;BME280;31961;52.416;-0.732;2022-12-10T01:11:46;99956.53;;;-0.23;100.00
46241;BME280;31961;52.416;-0.732;2022-12-10T01:14:15;99953.49;;;-0.99;100.00
46241;BME280;31961;52.416;-0.732;2022-12-10T01:16:43;99951.23;;;-1.05;100.00
46241;BME280;31961;52.416;-0.732;2022-12-10T01:19:11;99949.15;;;-1.53;100.00
46241;BME280;31961;52.416;-0.732;2022-12-10T01:21:38;99949.49;;;-1.55;100.00
46241;BME280;31961;52.416;-0.732;2022-12-10T01:24:06;99953.14;;;-1.62;100.00
46241;BME280;31961;52.416;-0.732;2022-12-10T01:26:35;99950.71;;;-1.39;100.00
46241;BME280;31961;52.416;-0.732;2022-12-10T01:29:04;99951.44;;;-1.83;100.00
46241;BME280;31961;52.416;-0.732;2022-12-10T01:31:33;99952.11;;;-2.59;100.00
46241;BME280;31961;52.416;-0.732;2022-12-10T01:34:03;99954.27;;;-1.84;100.00
46241;BME280;31961;52.416;-0.732;2022-12-10T01:36:32;99957.12;;;-1.55;100.00
46241;BME280;31961;52.416;-0.732;2022-12-10T01:39:04;99955.93;;;-1.54;100.00
46241;BME280;31961;52.416;-0.732;2022-12-10T01:41:35;99961.96;;;-1.95;100.00
46241;BME280;31961;52.416;-0.732;2022-12-10T01:47:21;99966.25;;;-1.67;100.00
46241;BME280;31961;52.416;-0.732;2022-12-10T01:49:49;99966.59;;;-1.52;100.00
46241;BME280;31961;52.416;-0.732;2022-12-10T01:52:16;99966.93;;;-1.76;100.00
46241;BME280;31961;52.416;-0.732;2022-12-10T01:54:45;99969.74;;;-1.85;100.00
46241;BME280;31961;52.416;-0.732;2022-12-10T01:57:15;99972.89;;;-1.47;100.00
46241;BME280;31961;52.416;-0.732;2022-12-10T01:59:46;99975.45;;;-1.45;100.00
46241;BME280;31961;52.416;-0.732;2022-12-10T02:02:20;99977.86;;;-1.37;100.00
46241;BME280;31961;52.416;-0.732;2022-12-10T02:04:57;99979.17;;;-1.62;100.00
46241;BME280;31961;52.416;-0.732;2022-12-10T02:07:32;99978.01;;;-1.56;100.00
46241;BME280;31961;52.416;-0.732;2022-12-10T02:10:11;99980.75;;;-1.99;100.00
46241;BME280;31961;52.416;-0.732;2022-12-10T02:12:46;99986.94;;;-2.24;100.00
46241;BME280;31961;52.416;-0.732;2022-12-10T02:15:18;99989.04;;;-1.73;100.00
46241;BME280;31961;52.416;-0.732;2022-12-10T02:17:50;99992.17;;;-1.72;100.00
46241;BME280;31961;52.416;-0.732;2022-12-10T02:20:20;99990.23;;;-1.83;100.00
46241;BME280;31961;52.416;-0.732;2022-12-10T02:22:51;99992.71;;;-1.92;100.00
46241;BME280;31961;52.416;-0.732;2022-12-10T02:25:23;99991.88;;;-2.22;100.00
46241;BME280;31961;52.416;-0.732;2022-12-10T02:27:56;99990.93;;;-2.67;100.00
46241;BME280;31961;52.416;-0.732;2022-12-10T02:30:25;99987.69;;;-2.51;100.00
46241;BME280;31961;52.416;-0.732;2022-12-10T02:32:53;99986.81;;;-2.26;100.00
46241;BME280;31961;52.416;-0.732;2022-12-10T02:35:24;99991.19;;;-2.57;100.00
46241;BME280;31961;52.416;-0.732;2022-12-10T02:37:55;99995.01;;;-2.70;100.00
46241;BME280;31961;52.416;-0.732;2022-12-10T02:40:26;100000.21;;;-2.90;100.00
46241;BME280;31961;52.416;-0.732;2022-12-10T02:42:56;100003.94;;;-3.13;100.00
46241;BME280;31961;52.416;-0.732;2022-12-10T02:45:26;100003.73;;;-2.87;100.00
46241;BME280;31961;52.416;-0.732;2022-12-10T02:47:56;99996.43;;;-2.70;100.00
46241;BME280;31961;52.416;-0.732;2022-12-10T02:50:24;99996.81;;;-2.65;100.00
46241;BME280;31961;52.416;-0.732;2022-12-10T02:52:52;99990.17;;;-2.39;100.00
46241;BME280;31961;52.416;-0.732;2022-12-10T02:55:19;99981.69;;;-1.98;100.00
46241;BME280;31961;52.416;-0.732;2022-12-10T02:57:58;99979.93;;;-1.56;100.00
46241;BME280;31961;52.416;-0.732;2022-12-10T03:00:29;99975.71;;;-1.32;100.00
46241;BME280;31961;52.416;-0.732;2022-12-10T03:03:14;99979.07;;;-1.16;100.00
46241;BME280;31961;52.416;-0.732;2022-12-10T03:05:47;99982.14;;;-0.86;100.00
46241;BME280;31961;52.416;-0.732;2022-12-10T03:08:21;99984.65;;;-1.12;100.00
46241;BME280;31961;52.416;-0.732;2022-12-10T03:10:54;99980.72;;;-0.47;100.00
46241;BME280;31961;52.416;-0.732;2022-12-10T03:13:27;99983.51;;;-0.86;100.00
46241;BME280;31961;52.416;-0.732;2022-12-10T03:15:57;99976.78;;;-0.12;98.99
46241;BME280;31961;52.416;-0.732;2022-12-10T03:18:26;99971.42;;;-0.58;100.00
46241;BME280;31961;52.416;-0.732;2022-12-10T03:20:59;99972.38;;;-1.21;100.00
46241;BME280;31961;52.416;-0.732;2022-12-10T03:23:30;99970.24;;;-0.18;100.00
46241;BME280;31961;52.416;-0.732;2022-12-10T03:26:00;99968.10;;;-0.92;100.00
46241;BME280;31961;52.416;-0.732;2022-12-10T03:28:29;99968.08;;;-0.59;100.00
46241;BME280;31961;52.416;-0.732;2022-12-10T03:30:59;99967.99;;;-1.09;100.00
46241;BME280;31961;52.416;-0.732;2022-12-10T03:33:27;99966.68;;;-0.58;100.00
46241;BME280;31961;52.416;-0.732;2022-12-10T03:35:54;99966.05;;;0.27;98.96
46241;BME280;31961;52.416;-0.732;2022-12-10T03:38:22;99963.51;;;-0.53;100.00
46241;BME280;31961;52.416;-0.732;2022-12-10T03:40:49;99963.45;;;-0.83;100.00
46241;BME280;31961;52.416;-0.732;2022-12-10T03:43:17;99966.68;;;-0.77;100.00
46241;BME280;31961;52.416;-0.732;2022-12-10T03:45:44;99965.78;;;-0.42;100.00
46241;BME280;31961;52.416;-0.732;2022-12-10T03:48:11;99966.67;;;0.22;100.00
46241;BME280;31961;52.416;-0.732;2022-12-10T03:50:39;99962.93;;;0.41;100.00
46241;BME280;31961;52.416;-0.732;2022-12-10T03:53:06;99962.21;;;-0.21;100.00
46241;BME280;31961;52.416;-0.732;2022-12-10T03:55:33;99964.30;;;0.15;100.00
46241;BME280;31961;52.416;-0.732;2022-12-10T03:58:01;99962.18;;;0.40;100.00
46241;BME280;31961;52.416;-0.732;2022-12-10T04:00:28;99960.44;;;0.46;100.00
46241;BME280;31961;52.416;-0.732;2022-12-10T04:02:55;99961.75;;;0.29;100.00
46241;BME280;31961;52.416;-0.732;2022-12-10T04:05:22;99954.30;;;0.13;100.00
46241;BME280;31961;52.416;-0.732;2022-12-10T04:07:49;99949.77;;;0.81;99.09
46241;BME280;31961;52.416;-0.732;2022-12-10T04:10:17;99956.37;;;0.12;99.63
46241;BME280;31961;52.416;-0.732;2022-12-10T04:12:44;99963.53;;;0.05;98.69
46241;BME280;31961;52.416;-0.732;2022-12-10T04:15:11;99959.15;;;-0.02;100.00
46241;BME280;31961;52.416;-0.732;2022-12-10T04:17:38;99960.23;;;0.40;97.95
46241;BME280;31961;52.416;-0.732;2022-12-10T04:20:06;99959.08;;;0.41;96.92
46241;BME280;31961;52.416;-0.732;2022-12-10T04:22:34;99958.08;;;0.31;95.14
46241;BME280;31961;52.416;-0.732;2022-12-10T04:25:01;99956.19;;;-0.88;100.00
46241;BME280;31961;52.416;-0.732;2022-12-10T04:27:31;99955.65;;;0.49;100.00
46241;BME280;31961;52.416;-0.732;2022-12-10T04:30:00;99955.13;;;0.15;98.73
46241;BME280;31961;52.416;-0.732;2022-12-10T04:32:28;99950.44;;;0.56;97.46
46241;BME280;31961;52.416;-0.732;2022-12-10T04:34:56;99951.28;;;0.53;99.58
46241;BME280;31961;52.416;-0.732;2022-12-10T04:37:24;99954.94;;;0.28;96.24
46241;BME280;31961;52.416;-0.732;2022-12-10T04:39:52;99953.66;;;-0.65;100.00
46241;BME280;31961;52.416;-0.732;2022-12-10T04:42:21;99957.36;;;0.14;97.98
46241;BME280;31961;52.416;-0.732;2022-12-10T04:44:49;99959.87;;;0.08;96.94
46241;BME280;31961;52.416;-0.732;2022-12-10T04:47:16;99963.32;;;-0.14;98.66
46241;BME280;31961;52.416;-0.732;2022-12-10T04:49:44;99970.72;;;-0.52;100.00
46241;BME280;31961;52.416;-0.732;2022-12-10T04:52:13;99972.30;;;-1.30;100.00
46241;BME280;31961;52.416;-0.732;2022-12-10T04:54:41;99971.96;;;-0.77;100.00
46241;BME280;31961;52.416;-0.732;2022-12-10T04:57:09;99970.35;;;-0.50;100.00
46241;BME280;31961;52.416;-0.732;2022-12-10T04:59:36;99966.75;;;-0.52;100.00
46241;BME280;31961;52.416;-0.732;2022-12-10T05:02:04;99967.99;;;-0.20;100.00
46241;BME280;31961;52.416;-0.732;2022-12-10T05:04:31;99969.12;;;-0.33;100.00
46241;BME280;31961;52.416;-0.732;2022-12-10T05:06:58;99968.39;;;-0.71;100.00
46241;BME280;31961;52.416;-0.732;2022-12-10T05:09:26;99972.11;;;-0.52;100.00
46241;BME280;31961;52.416;-0.732;2022-12-10T05:11:53;99973.58;;;-0.29;100.00
46241;BME280;31961;52.416;-0.732;2022-12-10T05:14:21;99970.08;;;-0.65;100.00
46241;BME280;31961;52.416;-0.732;2022-12-10T05:16:50;99970.13;;;-0.28;98.97
46241;BME280;31961;52.416;-0.732;2022-12-10T05:19:17;99969.36;;;-0.62;100.00
46241;BME280;31961;52.416;-0.732;2022-12-10T05:21:45;99973.44;;;-0.73;100.00
46241;BME280;31961;52.416;-0.732;2022-12-10T05:24:12;99969.60;;;-0.50;100.00
46241;BME280;31961;52.416;-0.732;2022-12-10T05:26:39;99966.90;;;-0.30;100.00
46241;BME280;31961;52.416;-0.732;2022-12-10T05:29:06;99964.42;;;-0.01;100.00
46241;BME280;31961;52.416;-0.732;2022-12-10T05:31:34;99961.24;;;-0.51;100.00
46241;BME280;31961;52.416;-0.732;2022-12-10T05:34:01;99965.30;;;-0.21;100.00
46241;BME280;31961;52.416;-0.732;2022-12-10T05:36:31;99961.25;;;-0.94;100.00
46241;BME280;31961;52.416;-0.732;2022-12-10T05:38:59;99963.56;;;-0.52;100.00
46241;BME280;31961;52.416;-0.732;2022-12-10T05:41:28;99962.45;;;-0.22;100.00
46241;BME280;31961;52.416;-0.732;2022-12-10T05:43:57;99961.92;;;-0.18;100.00
46241;BME280;31961;52.416;-0.732;2022-12-10T05:46:27;99962.96;;;0.12;100.00
46241;BME280;31961;52.416;-0.732;2022-12-10T05:48:55;99958.30;;;0.09;100.00
46241;BME280;31961;52.416;-0.732;2022-12-10T05:51:25;99960.57;;;-0.67;100.00
46241;BME280;31961;52.416;-0.732;2022-12-10T05:53:53;99963.73;;;-0.48;98.99
46241;BME280;31961;52.416;-0.732;2022-12-10T05:56:23;99957.14;;;-0.41;96.99
46241;BME280;31961;52.416;-0.732;2022-12-10T05:58:52;99955.76;;;-0.41;96.69
46241;BME280;31961;52.416;-0.732;2022-12-10T06:01:22;99952.73;;;-0.51;96.58
46241;BME280;31961;52.416;-0.732;2022-12-10T06:03:49;99952.71;;;-0.70;95.10
46241;BME280;31961;52.416;-0.732;2022-12-10T06:06:20;99959.48;;;-0.94;97.06
46241;BME280;31961;52.416;-0.732;2022-12-10T06:08:48;99957.48;;;-1.24;98.27
46241;BME280;31961;52.416;-0.732;2022-12-10T06:11:16;99960.82;;;-1.77;100.00
46241;BME280;31961;52.416;-0.732;2022-12-10T06:13:44;99956.98;;;-1.37;98.84
46241;BME280;31961;52.416;-0.732;2022-12-10T06:16:12;99957.72;;;-1.38;98.18
46241;BME280;31961;52.416;-0.732;2022-12-10T06:18:41;99960.13;;;-1.46;99.33
46241;BME280;31961;52.416;-0.732;2022-12-10T06:21:11;99957.85;;;-1.42;96.90
46241;BME280;31961;52.416;-0.732;2022-12-10T06:23:40;99965.75;;;-1.56;97.46
46241;BME280;31961;52.416;-0.732;2022-12-10T06:26:11;99968.01;;;-1.64;97.52
46241;BME280;31961;52.416;-0.732;2022-12-10T06:28:39;99964.97;;;-1.62;96.48
46241;BME280;31961;52.416;-0.732;2022-12-10T06:31:07;99961.94;;;-1.29;95.64
46241;BME280;31961;52.416;-0.732;2022-12-10T06:33:34;99965.00;;;-2.94;100.00
46241;BME280;31961;52.416;-0.732;2022-12-10T06:36:04;99958.32;;;-1.42;96.62
46241;BME280;31961;52.416;-0.732;2022-12-10T06:38:31;99959.50;;;-1.57;94.80
46241;BME280;31961;52.416;-0.732;2022-12-10T06:40:58;99961.55;;;-1.52;93.05
46241;BME280;31961;52.416;-0.732;2022-12-10T06:43:28;99962.32;;;-1.65;97.65
46241;BME280;31961;52.416;-0.732;2022-12-10T06:45:55;99961.60;;;-1.88;96.60
46241;BME280;31961;52.416;-0.732;2022-12-10T06:48:23;99961.41;;;-1.91;96.42
46241;BME280;31961;52.416;-0.732;2022-12-10T06:50:50;99964.48;;;-1.59;97.07
46241;BME280;31961;52.416;-0.732;2022-12-10T06:53:17;99961.49;;;-1.82;96.92
46241;BME280;31961;52.416;-0.732;2022-12-10T06:55:45;99966.07;;;-1.71;97.68
46241;BME280;31961;52.416;-0.732;2022-12-10T06:58:12;99966.89;;;-1.58;96.69
46241;BME280;31961;52.416;-0.732;2022-12-10T07:00:39;99964.49;;;-1.52;96.67
46241;BME280;31961;52.416;-0.732;2022-12-10T07:03:06;99965.72;;;-1.55;96.23
46241;BME280;31961;52.416;-0.732;2022-12-10T07:05:34;99964.07;;;-1.79;97.73
46241;BME280;31961;52.416;-0.732;2022-12-10T07:08:01;99966.93;;;-2.89;99.42
46241;BME280;31961;52.416;-0.732;2022-12-10T07:10:28;99970.29;;;-3.10;100.00
46241;BME280;31961;52.416;-0.732;2022-12-10T07:12:56;99972.00;;;-3.03;100.00
46241;BME280;31961;52.416;-0.732;2022-12-10T07:15:23;99973.68;;;-3.46;100.00
46241;BME280;31961;52.416;-0.732;2022-12-10T07:17:51;99978.25;;;-3.64;100.00
46241;BME280;31961;52.416;-0.732;2022-12-10T07:20:18;99971.43;;;-2.41;100.00
46241;BME280;31961;52.416;-0.732;2022-12-10T07:22:46;99972.44;;;-2.13;99.47
46241;BME280;31961;52.416;-0.732;2022-12-10T07:25:13;99973.46;;;-2.45;98.40
46241;BME280;31961;52.416;-0.732;2022-12-10T07:27:40;99974.49;;;-2.41;97.62
46241;BME280;31961;52.416;-0.732;2022-12-10T07:30:08;99977.78;;;-2.52;98.30
46241;BME280;31961;52.416;-0.732;2022-12-10T07:32:36;99978.66;;;-2.86;98.44
46241;BME280;31961;52.416;-0.732;2022-12-10T07:35:04;99980.83;;;-2.64;100.00
46241;BME280;31961;52.416;-0.732;2022-12-10T07:37:31;99986.51;;;-2.37;100.00
46241;BME280;31961;52.416;-0.732;2022-12-10T07:40:00;99986.35;;;-2.41;99.54
46241;BME280;31961;52.416;-0.732;2022-12-10T07:42:27;99985.73;;;-2.87;100.00
46241;BME280;31961;52.416;-0.732;2022-12-10T07:44:54;99984.25;;;-2.25;96.90
46241;BME280;31961;52.416;-0.732;2022-12-10T07:47:21;99978.50;;;-2.10;95.85
46241;BME280;31961;52.416;-0.732;2022-12-10T07:49:49;99981.42;;;-2.13;97.12
46241;BME280;31961;52.416;-0.732;2022-12-10T07:52:16;99985.67;;;-1.96;95.23
46241;BME280;31961;52.416;-0.732;2022-12-10T07:54:43;99984.21;;;-1.96;95.44
46241;BME280;31961;52.416;-0.732;2022-12-10T07:57:12;99988.72;;;-2.00;96.38
46241;BME280;31961;52.416;-0.732;2022-12-10T07:59:38;99989.66;;;-1.83;96.05
46241;BME280;31961;52.416;-0.732;2022-12-10T08:02:05;99985.92;;;-2.00;95.95
46241;BME280;31961;52.416;-0.732;2022-12-10T08:04:33;99986.48;;;-1.88;95.69
46241;BME280;31961;52.416;-0.732;2022-12-10T08:07:00;99984.39;;;-1.55;96.98
46241;BME280;31961;52.416;-0.732;2022-12-10T08:09:27;99984.60;;;-1.68;96.35
46241;BME280;31961;52.416;-0.732;2022-12-10T08:11:55;99988.50;;;-1.63;96.70
46241;BME280;31961;52.416;-0.732;2022-12-10T08:14:22;99991.25;;;-1.77;98.44
46241;BME280;31961;52.416;-0.732;2022-12-10T08:16:50;99994.75;;;-1.74;93.80
46241;BME280;31961;52.416;-0.732;2022-12-10T08:19:17;99995.14;;;-2.03;94.80
46241;BME280;31961;52.416;-0.732;2022-12-10T08:21:44;99998.52;;;-1.57;93.04
46241;BME280;31961;52.416;-0.732;2022-12-10T08:24:11;99993.33;;;-1.67;93.41
46241;BME280;31961;52.416;-0.732;2022-12-10T08:26:39;99992.31;;;-2.11;95.13
46241;BME280;31961;52.416;-0.732;2022-12-10T08:29:06;99993.40;;;-2.06;94.19
46241;BME280;31961;52.416;-0.732;2022-12-10T08:31:33;99997.38;;;-2.10;93.38
46241;BME280;31961;52.416;-0.732;2022-12-10T08:34:00;99995.21;;;-2.02;92.30
46241;BME280;31961;52.416;-0.732;2022-12-10T08:36:28;99996.23;;;-1.98;92.66
46241;BME280;31961;52.416;-0.732;2022-12-10T08:38:55;100000.08;;;-2.02;93.53
46241;BME280;31961;52.416;-0.732;2022-12-10T08:41:23;100002.24;;;-1.88;92.90
46241;BME280;31961;52.416;-0.732;2022-12-10T08:43:52;100005.85;;;-2.20;94.01
46241;BME280;31961;52.416;-0.732;2022-12-10T08:46:20;100004.60;;;-2.15;95.45
46241;BME280;31961;52.416;-0.732;2022-12-10T08:48:48;100005.47;;;-2.53;94.15
46241;BME280;31961;52.416;-0.732;2022-12-10T08:51:17;100007.61;;;-2.41;97.24
46241;BME280;31961;52.416;-0.732;2022-12-10T08:53:45;100014.35;;;-2.89;97.97
46241;BME280;31961;52.416;-0.732;2022-12-10T08:56:12;100008.44;;;-2.81;98.94
46241;BME280;31961;52.416;-0.732;2022-12-10T08:58:39;100009.39;;;-2.37;98.50
46241;BME280;31961;52.416;-0.732;2022-12-10T09:01:08;100008.54;;;-2.41;100.00
46241;BME280;31961;52.416;-0.732;2022-12-10T09:03:36;100004.74;;;-2.31;99.07
46241;BME280;31961;52.416;-0.732;2022-12-10T09:06:04;100001.64;;;-1.89;99.39
46241;BME280;31961;52.416;-0.732;2022-12-10T09:08:33;100000.95;;;-1.74;97.06
46241;BME280;31961;52.416;-0.732;2022-12-10T09:11:05;100004.73;;;-2.89;98.73
46241;BME280;31961;52.416;-0.732;2022-12-10T09:13:32;99999.85;;;-1.86;99.00
46241;BME280;31961;52.416;-0.732;2022-12-10T09:16:01;99999.70;;;-1.53;97.66
46241;BME280;31961;52.416;-0.732;2022-12-10T09:18:28;99998.80;;;-1.61;96.91
46241;BME280;31961;52.416;-0.732;2022-12-10T09:20:55;100003.02;;;-1.49;97.60
46241;BME280;31961;52.416;-0.732;2022-12-10T09:23:22;100002.48;;;-1.29;97.22
46241;BME280;31961;52.416;-0.732;2022-12-10T09:25:49;100008.51;;;-1.29;97.93
46241;BME280;31961;52.416;-0.732;2022-12-10T09:28:16;100008.80;;;-1.23;97.62
46241;BME280;31961;52.416;-0.732;2022-12-10T09:30:43;100006.66;;;-1.16;97.80
46241;BME280;31961;52.416;-0.732;2022-12-10T09:33:11;100012.03;;;-0.80;97.79
46241;BME280;31961;52.416;-0.732;2022-12-10T09:35:40;100011.18;;;-0.90;97.59
46241;BME280;31961;52.416;-0.732;2022-12-10T09:38:08;100011.26;;;-0.80;97.91
46241;BME280;31961;52.416;-0.732;2022-12-10T09:40:40;100015.72;;;-0.92;98.30
46241;BME280;31961;52.416;-0.732;2022-12-10T09:43:15;100013.60;;;-0.34;98.70
46241;BME280;31961;52.416;-0.732;2022-12-10T09:45:57;100014.69;;;-0.46;99.34
46241;BME280;31961;52.416;-0.732;2022-12-10T09:48:31;100013.73;;;-0.33;100.00
46241;BME280;31961;52.416;-0.732;2022-12-10T09:51:06;100015.65;;;-0.32;100.00
46241;BME280;31961;52.416;-0.732;2022-12-10T09:53:38;100020.69;;;-1.25;100.00
46241;BME280;31961;52.416;-0.732;2022-12-10T09:56:18;100022.13;;;-1.83;100.00
46241;BME280;31961;52.416;-0.732;2022-12-10T09:58:47;100022.34;;;-1.25;100.00
46241;BME280;31961;52.416;-0.732;2022-12-10T10:01:16;100019.02;;;-0.93;100.00
46241;BME280;31961;52.416;-0.732;2022-12-10T10:03:46;100023.41;;;-0.30;100.00
46241;BME280;31961;52.416;-0.732;2022-12-10T10:06:14;100019.92;;;-0.22;100.00
46241;BME280;31961;52.416;-0.732;2022-12-10T10:08:44;100028.26;;;-0.90;100.00
46241;BME280;31961;52.416;-0.732;2022-12-10T10:11:16;100029.66;;;-0.88;100.00
46241;BME280;31961;52.416;-0.732;2022-12-10T10:13:47;100029.23;;;-1.19;100.00
46241;BME280;31961;52.416;-0.732;2022-12-10T10:16:22;100028.73;;;-0.60;100.00
46241;BME280;31961;52.416;-0.732;2022-12-10T10:18:55;100033.31;;;-1.90;100.00
46241;BME280;31961;52.416;-0.732;2022-12-10T10:21:25;100027.05;;;-1.27;100.00
46241;BME280;31961;52.416;-0.732;2022-12-10T10:23:54;100035.73;;;-2.15;100.00
46241;BME280;31961;52.416;-0.732;2022-12-10T10:26:24;100034.09;;;-1.23;100.00
46241;BME280;31961;52.416;-0.732;2022-12-10T10:28:57;100030.52;;;-1.94;100.00
46241;BME280;31961;52.416;-0.732;2022-12-10T10:31:27;100033.13;;;-2.13;100.00
46241;BME280;31961;52.416;-0.732;2022-12-10T10:33:57;100035.44;;;-2.22;100.00
46241;BME280;31961;52.416;-0.732;2022-12-10T10:36:27;100034.74;;;-1.23;100.00
46241;BME280;31961;52.416;-0.732;2022-12-10T10:38:56;100033.70;;;-1.56;100.00
46241;BME280;31961;52.416;-0.732;2022-12-10T10:41:24;100030.79;;;-3.02;100.00
46241;BME280;31961;52.416;-0.732;2022-12-10T10:43:59;100031.41;;;-2.45;100.00
46241;BME280;31961;52.416;-0.732;2022-12-10T10:46:27;100035.93;;;-2.90;100.00
46241;BME280;31961;52.416;-0.732;2022-12-10T10:49:13;100031.17;;;-1.57;100.00
46241;BME280;31961;52.416;-0.732;2022-12-10T10:51:43;100031.55;;;-1.17;100.00
46241;BME280;31961;52.416;-0.732;2022-12-10T10:54:11;100030.25;;;-1.60;100.00
46241;BME280;31961;52.416;-0.732;2022-12-10T10:56:41;100025.24;;;-1.92;100.00
46241;BME280;31961;52.416;-0.732;2022-12-10T10:59:29;100023.99;;;-2.13;100.00
46241;BME280;31961;52.416;-0.732;2022-12-10T11:02:02;100030.71;;;-2.22;100.00
46241;BME280;31961;52.416;-0.732;2022-12-10T11:04:37;100037.69;;;-2.46;100.00
46241;BME280;31961;52.416;-0.732;2022-12-10T11:07:10;100039.50;;;-2.26;100.00
46241;BME280;31961;52.416;-0.732;2022-12-10T11:09:39;100040.44;;;-2.66;100.00
46241;BME280;31961;52.416;-0.732;2022-12-10T11:12:21;100035.12;;;-2.31;100.00
46241;BME280;31961;52.416;-0.732;2022-12-10T11:14:50;100042.20;;;-3.55;100.00
46241;BME280;31961;52.416;-0.732;2022-12-10T11:17:20;100038.66;;;-2.47;100.00
46241;BME280;31961;52.416;-0.732;2022-12-10T11:19:56;100036.75;;;-3.10;100.00
46241;BME280;31961;52.416;-0.732;2022-12-10T11:22:26;100035.36;;;-3.42;100.00
46241;BME280;31961;52.416;-0.732;2022-12-10T11:24:53;100029.47;;;-2.97;100.00
46241;BME280;31961;52.416;-0.732;2022-12-10T11:27:34;100025.46;;;-3.24;100.00
46241;BME280;31961;52.416;-0.732;2022-12-10T11:30:08;100027.23;;;-2.63;100.00
46241;BME280;31961;52.416;-0.732;2022-12-10T11:32:46;100027.90;;;-3.01;100.00
46241;BME280;31961;52.416;-0.732;2022-12-10T11:35:20;100020.27;;;-2.27;100.00
46241;BME280;31961;52.416;-0.732;2022-12-10T11:37:58;100017.24;;;-1.47;100.00
46241;BME280;31961;52.416;-0.732;2022-12-10T11:40:33;100013.88;;;-2.57;100.00
46241;BME280;31961;52.416;-0.732;2022-12-10T11:43:14;100014.67;;;-2.72;100.00
46241;BME280;31961;52.416;-0.732;2022-12-10T11:45:51;100017.73;;;-2.37;100.00
46241;BME280;31961;52.416;-0.732;2022-12-10T11:48:32;100014.99;;;-2.77;100.00
46241;BME280;31961;52.416;-0.732;2022-12-10T11:51:05;100015.22;;;-2.73;100.00
46241;BME280;31961;52.416;-0.732;2022-12-10T11:53:45;100012.49;;;-2.43;100.00
46241;BME280;31961;52.416;-0.732;2022-12-10T11:56:21;100006.48;;;-1.15;100.00
46241;BME280;31961;52.416;-0.732;2022-12-10T11:58:59;100006.53;;;-1.37;100.00
46241;BME280;31961;52.416;-0.732;2022-12-10T12:01:47;100004.72;;;-2.13;100.00
46241;BME280;31961;52.416;-0.732;2022-12-10T12:04:25;100001.58;;;-1.82;100.00
46241;BME280;31961;52.416;-0.732;2022-12-10T12:07:14;99999.60;;;-0.87;100.00
46241;BME280;31961;52.416;-0.732;2022-12-10T12:09:55;100006.10;;;-2.20;100.00
46241;BME280;31961;52.416;-0.732;2022-12-10T12:12:35;100007.22;;;-1.77;100.00
46241;BME280;31961;52.416;-0.732;2022-12-10T12:15:16;100007.71;;;-1.66;100.00
46241;BME280;31961;52.416;-0.732;2022-12-10T12:17:48;100006.87;;;-1.29;100.00
46241;BME280;31961;52.416;-0.732;2022-12-10T12:20:20;100001.91;;;-1.80;100.00
46241;BME280;31961;52.416;-0.732;2022-12-10T12:22:54;100003.49;;;-1.04;100.00
46241;BME280;31961;52.416;-0.732;2022-12-10T12:25:27;99994.20;;;-0.72;100.00
46241;BME280;31961;52.416;-0.732;2022-12-10T12:28:02;99995.47;;;-0.41;100.00
46241;BME280;31961;52.416;-0.732;2022-12-10T12:30:37;99996.29;;;-0.34;100.00
46241;BME280;31961;52.416;-0.732;2022-12-10T12:33:11;99998.08;;;-0.87;100.00
46241;BME280;31961;52.416;-0.732;2022-12-10T12:35:42;99997.63;;;-0.08;100.00
46241;BME280;31961;52.416;-0.732;2022-12-10T12:38:23;99997.41;;;-0.15;100.00
46241;BME280;31961;52.416;-0.732;2022-12-10T12:40:58;100002.32;;;0.40;100.00
46241;BME280;31961;52.416;-0.732;2022-12-10T12:43:37;100003.25;;;-0.88;100.00
46241;BME280;31961;52.416;-0.732;2022-12-10T12:46:12;100004.03;;;-0.71;100.00
46241;BME280;31961;52.416;-0.732;2022-12-10T12:48:49;100000.33;;;-0.54;100.00
46241;BME280;31961;52.416;-0.732;2022-12-10T12:51:23;99999.37;;;-0.06;100.00
46241;BME280;31961;52.416;-0.732;2022-12-10T12:53:53;99997.14;;;-0.19;100.00
46241;BME280;31961;52.416;-0.732;2022-12-10T12:56:29;99995.81;;;0.11;100.00